Impacts METAR Board
IDs:

KMCO - Orlando Intl, FL, US

Updated at: 1000 UTC 22 Apr 2018
Potential Impact None Slight Moderate High
Time 21/22Z 21/23Z 22/00Z 22/01Z 22/02Z 22/03Z 22/04Z 22/05Z 22/06Z 22/07Z 22/08Z 22/09Z 22/10Z
Temp78 76 74 73 72 72 71 72 72 71 71 71 71
Dewpt66 66 66 66 66 66 67 67 66 66 66 66 66
Altim30.13 30.14 30.14 30.16 30.17 30.18 30.17 30.16 30.14 30.13 30.12 30.12 30.12
VIS10 10 10 10 10 10 10 10 10 10 10 10 10
CIG38 33 110 -- -- -- 80 40 37 24 45 65 46
CoverBKNBKNBKNFEWFEWSCTBKNBKNBKNBKNBKNBKNBKN
FltCatVFRVFRVFRVFRVFRVFRVFRVFRVFRMVFRVFRVFRVFR
WX--------------------------
WDir100909090809070909080707070
WSpd16 13 14 11 12 11 11 12 10 8 8 8 7
WGst-- -- -- 19 -- -- -- -- -- -- -- -- --
Raw hourly METARs
KMCO 212153Z 10016KT 10SM SCT026 BKN038 BKN110 26/19 A3013 RMK AO2 RAE07 SLP200 P0000 T02560189
KMCO 212253Z 09013KT 10SM SCT026 BKN033 BKN110 24/19 A3014 RMK AO2 SLP203 T02440189
KMCO 212353Z 09014KT 10SM FEW024 SCT041 BKN110 23/19 A3014 RMK AO2 RAB12E25 SLP205 P0000 60000 T02330189 10283 20233 53004
KMCO 220053Z 09011G19KT 10SM FEW030 23/19 A3016 RMK AO2 SLP210 T02280189
KMCO 220153Z 08012KT 10SM FEW032 FEW250 22/19 A3017 RMK AO2 SLP214 T02220189
KMCO 220253Z 09011KT 10SM FEW022 FEW034 SCT250 22/19 A3018 RMK AO2 SLP218 T02220189 51013
KMCO 220353Z 07011KT 10SM FEW025 SCT042 BKN080 22/19 A3017 RMK AO2 RAB31E44 SLP214 P0000 T02170194
KMCO 220453Z 09012KT 10SM FEW023 BKN040 BKN075 22/19 A3016 RMK AO2 RAB08E26 SLP210 P0000 T02220194 402830189
KMCO 220553Z 09010KT 10SM FEW026 BKN037 BKN075 22/19 A3014 RMK AO2 SLP204 60000 T02220189 10233 20217 58013
KMCO 220653Z 08008KT 10SM BKN024 BKN075 22/19 A3013 RMK AO2 SLP203 T02170189
KMCO 220753Z 07008KT 10SM SCT027 BKN045 22/19 A3012 RMK AO2 SLP198 T02170189
KMCO 220853Z 07008KT 10SM FEW030 BKN065 22/19 A3012 RMK AO2 SLP197 T02170189 56007
KMCO 220953Z 07007KT 10SM FEW029 BKN046 22/19 A3012 RMK AO2 SLP197 T02170189



Page loaded:  10:47 UTC  |   03:47 AM Pacific  |   04:47 AM Mountain  |   05:47 AM Central  |   06:47 AM Eastern

 

ADVISORIES

FORECASTS

FORECASTS

OBSERVATIONS

USER TOOLS

ABOUT US